createdAt,value
2019-05-28T00:00:28.636Z,43.41
2019-05-28T00:02:58.682Z,43.76
2019-05-28T00:05:28.888Z,43.92
2019-05-28T00:07:59.018Z,43.98
2019-05-28T00:10:29.024Z,44.00
2019-05-28T00:12:58.877Z,43.95
2019-05-28T00:18:30.573Z,43.88
2019-05-28T00:21:00.648Z,44.21
2019-05-28T00:24:11.756Z,44.23
2019-05-28T00:26:41.898Z,44.54
2019-05-28T00:29:34.050Z,44.56
2019-05-28T00:32:28.323Z,44.35
2019-05-28T00:34:58.666Z,44.39
2019-05-28T00:37:29.835Z,44.57
2019-05-28T00:42:53.835Z,44.62
2019-05-28T00:45:43.755Z,44.95
2019-05-28T00:48:13.937Z,44.79
2019-05-28T00:50:45.987Z,44.60
2019-05-28T00:55:56.789Z,44.79
2019-05-28T00:58:45.838Z,44.82
2019-05-28T01:01:16.270Z,44.62
2019-05-28T01:03:46.342Z,44.69
2019-05-28T01:06:20.414Z,44.55
2019-05-28T01:09:30.765Z,44.68
2019-05-28T01:12:01.927Z,44.66
2019-05-28T01:17:34.800Z,44.64
2019-05-28T01:20:06.203Z,44.64
2019-05-28T01:25:25.777Z,44.98
2019-05-28T01:27:55.709Z,44.57
2019-05-28T01:30:25.675Z,44.63
2019-05-28T01:32:56.037Z,44.51
2019-05-28T01:35:26.118Z,44.36
2019-05-28T01:37:56.288Z,44.54
2019-05-28T01:40:26.573Z,44.70
2019-05-28T01:42:56.512Z,44.85
2019-05-28T01:45:29.510Z,44.85
2019-05-28T01:51:01.191Z,45.04
2019-05-28T01:53:32.175Z,45.97
2019-05-28T01:56:02.338Z,46.46
2019-05-28T01:58:33.305Z,47.01
2019-05-28T02:03:53.239Z,47.82
2019-05-28T02:06:24.208Z,48.26
2019-05-28T02:09:13.095Z,48.89
2019-05-28T02:12:02.208Z,48.80
2019-05-28T02:14:32.246Z,48.09
2019-05-28T02:17:21.063Z,47.07
2019-05-28T02:19:51.174Z,46.42
2019-05-28T02:25:12.377Z,46.80
2019-05-28T02:28:02.258Z,46.71
2019-05-28T02:33:52.070Z,46.44
2019-05-28T02:39:22.305Z,47.26
2019-05-28T02:41:53.560Z,47.54
2019-05-28T02:44:24.453Z,47.62
2019-05-28T02:46:54.935Z,47.59
2019-05-28T02:49:26.362Z,47.82
2019-05-28T02:52:16.292Z,47.68
2019-05-28T02:54:47.160Z,47.32
2019-05-28T02:57:36.027Z,47.83
2019-05-28T03:06:31.415Z,48.35
2019-05-28T03:09:01.565Z,47.86
2019-05-28T03:11:32.777Z,47.52
2019-05-28T03:14:03.580Z,47.57
2019-05-28T03:19:37.651Z,47.88
2019-05-28T03:22:08.664Z,48.18
2019-05-28T03:25:19.013Z,49.20
2019-05-28T03:27:49.993Z,48.30
2019-05-28T03:30:38.096Z,48.30
2019-05-28T03:33:09.930Z,47.93
2019-05-28T03:41:18.235Z,46.90
2019-05-28T03:43:49.271Z,46.90
2019-05-28T03:46:20.169Z,46.88
2019-05-28T03:49:14.113Z,47.21
2019-05-28T03:51:47.373Z,47.57
2019-05-28T03:54:37.279Z,47.72
2019-05-28T03:57:29.635Z,47.35
2019-05-28T04:00:00.660Z,47.22
2019-05-28T04:02:49.471Z,47.31
2019-05-28T04:08:01.608Z,47.60
2019-05-28T04:10:50.483Z,47.83
2019-05-28T04:13:21.545Z,48.04
2019-05-28T04:15:52.527Z,47.67
2019-05-28T04:18:42.105Z,47.53
2019-05-28T04:21:32.990Z,46.62
2019-05-28T04:24:40.802Z,46.62
2019-05-28T04:27:11.619Z,46.99
2019-05-28T04:32:40.359Z,46.78
2019-05-28T04:35:04.056Z,46.55
2019-05-28T04:37:35.095Z,46.64
2019-05-28T04:40:06.706Z,46.81
2019-05-28T04:42:37.665Z,46.10
2019-05-28T04:45:47.881Z,46.16
2019-05-28T04:48:33.170Z,46.12
2019-05-28T04:50:51.465Z,46.34
2019-05-28T04:53:41.287Z,46.34
2019-05-28T04:56:11.481Z,46.93
2019-05-28T04:58:42.421Z,47.78
2019-05-28T05:01:13.322Z,48.68
2019-05-28T05:03:43.371Z,49.03
2019-05-28T05:06:14.251Z,48.36
2019-05-28T05:09:04.441Z,47.89
2019-05-28T05:11:54.577Z,47.46
2019-05-28T05:14:56.010Z,47.46
2019-05-28T05:20:16.609Z,50.11
2019-05-28T05:22:47.673Z,49.90
2019-05-28T05:25:37.607Z,50.22
2019-05-28T05:28:08.427Z,50.22
2019-05-28T05:30:40.487Z,49.83
2019-05-28T05:36:05.769Z,49.63
2019-05-28T05:44:41.357Z,50.10
2019-05-28T05:47:47.448Z,50.24
2019-05-28T05:50:36.094Z,49.99
2019-05-28T05:53:07.104Z,49.98
2019-05-28T05:58:27.928Z,49.77
2019-05-28T06:01:38.834Z,50.26
2019-05-28T06:04:09.566Z,50.95
2019-05-28T06:06:40.466Z,51.75
2019-05-28T06:09:54.399Z,52.54
2019-05-28T06:12:26.404Z,51.88
2019-05-28T06:14:57.550Z,51.88
2019-05-28T06:17:31.223Z,52.05
2019-05-28T06:20:41.474Z,52.05
2019-05-28T06:23:12.647Z,52.17
2019-05-28T06:26:04.056Z,52.17
2019-05-28T06:28:34.974Z,52.20
2019-05-28T06:31:27.086Z,52.20
2019-05-28T06:33:57.669Z,52.23
2019-05-28T06:36:29.121Z,52.67
2019-05-28T06:41:46.042Z,53.09
2019-05-28T06:44:17.541Z,53.24
2019-05-28T06:47:09.822Z,53.59
2019-05-28T06:49:39.890Z,52.65
2019-05-28T06:55:04.326Z,51.91
2019-05-28T06:57:36.362Z,51.16
2019-05-28T07:03:26.390Z,52.37
2019-05-28T07:08:43.707Z,52.03
2019-05-28T07:11:38.677Z,51.63
2019-05-28T07:14:08.796Z,51.18
2019-05-28T07:19:33.813Z,52.31
2019-05-28T07:22:43.766Z,52.21
2019-05-28T07:28:45.078Z,51.61
2019-05-28T07:34:30.202Z,51.13
2019-05-28T07:37:13.082Z,50.97
2019-05-28T07:40:03.058Z,49.81
2019-05-28T07:42:35.189Z,50.02
2019-05-28T07:45:45.581Z,50.75
2019-05-28T07:51:10.196Z,50.42
2019-05-28T07:54:11.521Z,49.70
2019-05-28T07:57:22.050Z,49.78
2019-05-28T08:03:12.939Z,52.46
2019-05-28T08:09:30.625Z,52.71
2019-05-28T08:12:00.760Z,51.43
2019-05-28T08:14:30.813Z,49.66
2019-05-28T08:20:32.171Z,48.31
2019-05-28T08:23:22.662Z,46.54
2019-05-28T08:26:32.009Z,46.37
2019-05-28T08:32:05.475Z,43.15
2019-05-28T08:37:50.039Z,43.45
2019-05-28T08:43:48.499Z,42.19
2019-05-28T08:46:49.169Z,41.97
2019-05-28T08:49:51.500Z,41.63
2019-05-28T08:52:41.621Z,39.50
2019-05-28T08:55:25.909Z,41.27
2019-05-28T08:57:53.835Z,40.98
2019-05-28T09:01:30.300Z,37.76
2019-05-28T09:04:03.128Z,37.55
2019-05-28T09:09:12.074Z,39.42
2019-05-28T09:11:42.309Z,38.91
2019-05-28T09:14:53.926Z,38.73
2019-05-28T09:17:42.421Z,39.83
2019-05-28T09:20:13.136Z,39.82
2019-05-28T09:22:43.406Z,38.83
2019-05-28T09:25:13.562Z,36.53
2019-05-28T09:30:47.645Z,36.63
2019-05-28T09:34:01.052Z,37.13
2019-05-28T09:36:41.770Z,36.05
2019-05-28T09:40:11.390Z,38.36
2019-05-28T09:43:00.772Z,39.18
2019-05-28T09:46:04.691Z,38.73
2019-05-28T09:48:38.265Z,36.29
2019-05-28T09:51:10.869Z,36.75
2019-05-28T09:53:41.477Z,35.20
2019-05-28T09:56:12.036Z,35.83
2019-05-28T09:59:05.404Z,34.94
2019-05-28T10:05:06.216Z,32.81
2019-05-28T10:07:38.872Z,33.72
2019-05-28T10:13:58.428Z,34.18
2019-05-28T10:17:01.119Z,32.95
2019-05-28T10:19:31.495Z,32.54
2019-05-28T10:22:04.505Z,34.06
2019-05-28T10:24:57.575Z,34.09
2019-05-28T10:28:07.432Z,32.54
2019-05-28T10:30:39.185Z,31.46
2019-05-28T10:33:10.547Z,30.82
2019-05-28T10:35:46.305Z,31.33
2019-05-28T10:38:20.045Z,30.78
2019-05-28T10:47:06.655Z,31.61
2019-05-28T10:49:55.871Z,31.53
2019-05-28T10:52:46.379Z,31.19
2019-05-28T10:57:56.091Z,30.71
2019-05-28T11:00:36.524Z,30.38
2019-05-28T11:03:39.686Z,29.99
2019-05-28T11:12:06.286Z,28.69
2019-05-28T11:20:49.022Z,30.26
2019-05-28T11:26:39.816Z,29.43
2019-05-28T11:29:24.229Z,28.67
2019-05-28T11:31:42.836Z,27.85
2019-05-28T11:34:13.739Z,26.71
2019-05-28T11:37:09.412Z,26.71
2019-05-28T11:42:23.684Z,26.67
2019-05-28T11:45:44.258Z,25.41
2019-05-28T11:48:27.574Z,25.21
2019-05-28T11:59:56.035Z,24.71
2019-05-28T12:02:44.926Z,24.06
2019-05-28T12:08:34.256Z,24.88
2019-05-28T12:13:47.268Z,25.07
2019-05-28T12:16:57.449Z,24.76
2019-05-28T12:19:58.863Z,24.11
2019-05-28T12:26:05.538Z,24.04
2019-05-28T12:28:46.651Z,23.93
2019-05-28T12:31:38.256Z,23.99
2019-05-28T12:34:11.889Z,22.91
2019-05-28T12:37:01.478Z,23.31
2019-05-28T12:39:49.206Z,23.07
2019-05-28T12:42:19.341Z,22.77
2019-05-28T12:48:19.549Z,22.53
2019-05-28T12:50:50.628Z,22.79
2019-05-28T12:56:17.938Z,22.45
2019-05-28T13:02:50.778Z,23.31
2019-05-28T13:20:37.787Z,22.28
2019-05-28T13:23:32.212Z,22.51
2019-05-28T13:26:03.313Z,21.42
2019-05-28T13:28:54.772Z,22.92
2019-05-28T13:31:29.207Z,23.23
2019-05-28T13:34:06.816Z,22.42
2019-05-28T13:36:42.549Z,21.57
2019-05-28T13:39:33.484Z,20.77
2019-05-28T13:42:38.172Z,20.94
2019-05-28T13:48:03.881Z,20.80
2019-05-28T13:54:26.517Z,21.21
2019-05-28T14:00:45.534Z,19.64
2019-05-28T14:03:44.801Z,20.29
2019-05-28T14:09:19.647Z,25.47
2019-05-28T14:12:35.244Z,26.88
2019-05-28T14:15:25.279Z,28.02
2019-05-28T14:18:24.566Z,29.24
2019-05-28T14:20:54.867Z,29.91
2019-05-28T14:23:39.719Z,29.93
2019-05-28T14:29:43.383Z,30.24
2019-05-28T14:38:16.623Z,31.43
2019-05-28T14:43:59.153Z,29.59
2019-05-28T14:47:08.503Z,29.45
2019-05-28T14:52:53.328Z,29.29
2019-05-28T14:58:46.271Z,28.67
2019-05-28T15:01:18.365Z,28.88
2019-05-28T15:04:31.274Z,29.16
2019-05-28T15:12:59.035Z,27.65
2019-05-28T15:21:47.986Z,25.30
2019-05-28T15:24:22.850Z,25.30
2019-05-28T15:30:42.802Z,24.97
2019-05-28T15:37:09.363Z,22.89
2019-05-28T15:48:34.583Z,22.30
2019-05-28T15:57:48.818Z,21.23
2019-05-28T16:04:12.538Z,20.93
2019-05-28T16:10:39.599Z,21.87
2019-05-28T16:13:39.380Z,21.74
2019-05-28T16:19:41.612Z,20.88
2019-05-28T16:27:57.918Z,21.88
2019-05-28T16:31:16.496Z,21.91
2019-05-28T16:34:21.122Z,22.30
2019-05-28T16:36:41.252Z,22.69
2019-05-28T16:40:13.949Z,23.44
2019-05-28T16:42:08.421Z,23.67
2019-05-28T16:45:00.050Z,23.53
2019-05-28T16:47:31.945Z,23.95
2019-05-28T17:02:27.838Z,25.45
2019-05-28T17:11:27.931Z,26.24
2019-05-28T17:20:53.257Z,25.90
2019-05-28T17:26:53.281Z,26.48
2019-05-28T17:30:13.201Z,26.47
2019-05-28T17:32:17.351Z,26.83
2019-05-28T17:35:28.049Z,27.32
2019-05-28T17:38:02.206Z,27.62
2019-05-28T17:50:46.348Z,25.81
2019-05-28T17:53:43.490Z,25.10
2019-05-28T17:59:35.583Z,24.36
2019-05-28T18:02:07.491Z,24.93
2019-05-28T18:05:00.713Z,25.41
2019-05-28T18:07:37.168Z,26.04
2019-05-28T18:10:09.401Z,26.58
2019-05-28T18:12:44.355Z,26.78
2019-05-28T18:15:35.299Z,27.29
2019-05-28T18:18:26.232Z,27.87
2019-05-28T18:21:17.923Z,28.15
2019-05-28T18:27:18.448Z,27.87
2019-05-28T18:31:10.803Z,28.76
2019-05-28T18:33:28.046Z,29.13
2019-05-28T18:36:12.005Z,29.14
2019-05-28T18:42:28.006Z,28.95
2019-05-28T18:44:59.095Z,28.95
2019-05-28T18:50:34.566Z,30.14
2019-05-28T18:53:07.513Z,30.20
2019-05-28T18:58:54.339Z,30.40
2019-05-28T19:01:47.138Z,30.87
2019-05-28T19:04:38.353Z,31.54
2019-05-28T19:10:13.616Z,31.86
2019-05-28T19:21:42.435Z,33.71
2019-05-28T19:24:24.668Z,34.07
2019-05-28T19:30:31.301Z,34.81
2019-05-28T19:36:12.918Z,35.20
2019-05-28T19:42:17.137Z,35.19
2019-05-28T19:45:02.722Z,35.76
2019-05-28T19:47:22.468Z,35.89
2019-05-28T19:50:14.294Z,36.03
2019-05-28T19:52:45.305Z,36.17
2019-05-28T19:55:36.250Z,36.41
2019-05-28T20:01:11.295Z,36.77
2019-05-28T20:03:43.337Z,36.77
2019-05-28T20:06:15.169Z,37.04
2019-05-28T20:08:47.021Z,37.27
2019-05-28T20:11:37.132Z,37.27
2019-05-28T20:14:09.033Z,37.01
2019-05-28T20:17:22.794Z,37.69
2019-05-28T20:20:25.864Z,37.72
2019-05-28T20:22:58.040Z,37.75
2019-05-28T20:25:39.246Z,37.50
2019-05-28T20:28:14.079Z,38.20
2019-05-28T20:30:48.962Z,38.20
2019-05-28T20:33:25.069Z,38.19
2019-05-28T20:39:08.184Z,38.60
2019-05-28T20:44:32.855Z,38.55
2019-05-28T20:47:06.970Z,38.17
2019-05-28T20:49:40.226Z,38.17
2019-05-28T20:52:50.319Z,37.80
2019-05-28T20:55:52.667Z,37.58
2019-05-28T20:58:40.160Z,37.18
2019-05-28T21:00:57.853Z,36.87
2019-05-28T21:03:30.671Z,36.87
2019-05-28T21:09:33.575Z,36.31
2019-05-28T21:12:24.258Z,36.43
2019-05-28T21:14:55.225Z,36.75
2019-05-28T21:17:27.053Z,37.09
2019-05-28T21:22:42.644Z,37.96
2019-05-28T21:25:33.068Z,38.26
2019-05-28T21:28:35.791Z,38.29
2019-05-28T21:33:59.640Z,38.51
2019-05-28T21:36:50.859Z,39.43
2019-05-28T21:39:22.671Z,40.10
2019-05-28T21:42:58.621Z,40.82
2019-05-28T21:45:28.551Z,41.32
2019-05-28T21:48:00.699Z,41.93
2019-05-28T21:50:45.864Z,42.38
2019-05-28T21:53:07.174Z,42.52
2019-05-28T21:55:57.751Z,42.78
2019-05-28T21:58:48.595Z,43.14
2019-05-28T22:02:00.069Z,43.39
2019-05-28T22:04:51.115Z,43.52
2019-05-28T22:07:40.979Z,43.56
2019-05-28T22:13:18.360Z,44.22
2019-05-28T22:15:37.297Z,44.26
2019-05-28T22:18:11.965Z,44.06
2019-05-28T22:20:42.852Z,44.06
2019-05-28T22:23:34.585Z,43.63
2019-05-28T22:26:06.354Z,43.73
2019-05-28T22:28:41.346Z,43.76
2019-05-28T22:31:32.099Z,43.73
2019-05-28T22:34:22.155Z,43.73
2019-05-28T22:36:54.102Z,43.69
2019-05-28T22:40:03.476Z,43.49
2019-05-28T22:42:34.606Z,43.30
2019-05-28T22:45:27.293Z,43.30
2019-05-28T22:48:18.027Z,43.43
2019-05-28T22:50:49.726Z,43.24
2019-05-28T22:53:21.526Z,43.40
2019-05-28T22:56:11.021Z,43.40
2019-05-28T23:01:56.295Z,43.23
2019-05-28T23:04:55.906Z,43.38
2019-05-28T23:07:28.585Z,43.50
2019-05-28T23:10:01.455Z,43.37
2019-05-28T23:12:51.811Z,43.36
2019-05-28T23:15:23.110Z,43.16
2019-05-28T23:21:12.475Z,42.68
2019-05-28T23:24:05.119Z,42.51
2019-05-28T23:35:23.342Z,42.72
2019-05-28T23:37:54.265Z,42.83
2019-05-28T23:40:25.555Z,42.94
2019-05-28T23:43:15.496Z,43.37
2019-05-28T23:45:47.767Z,43.57
2019-05-28T23:48:36.761Z,43.60
2019-05-28T23:56:50.611Z,44.03
2019-05-28T23:59:52.656Z,44.10
